Time;durP1;ratioP1;P1;durP2;ratioP2;P2;SDS_P1;SDS_P2;PMS_P1;PMS_P2;Temp;Humidity;BMP_temperature;BMP_pressure;BME280_temperature;BME280_humidity;BME280_pressure;Samples;Min_cycle;Max_cycle;Signal;HPM_P1;HPM_P2
2023/05/27 00:01:31;;;;;;;;;0.00;0.00;;;;;-146.67;27.07;74793.41;5105099;27;61863;-83
2023/05/27 00:03:56;;;;;;;;;0.00;0.00;;;;;-146.67;27.01;74811.38;5092489;27;62004;-82
2023/05/27 00:06:22;;;;;;;;;0.00;0.00;;;;;-146.67;27.08;74809.38;5092986;27;61802;-83
2023/05/27 00:08:47;;;;;;;;;0.00;0.00;;;;;-146.67;27.08;74801.38;5084240;27;65064;-83
2023/05/27 00:11:13;;;;;;;;;0.00;0.00;;;;;-146.67;26.91;74797.38;5084440;27;61748;-82
2023/05/27 00:13:38;;;;;;;;;0.00;0.00;;;;;-146.67;26.96;74799.38;5103324;27;62111;-82
2023/05/27 00:16:04;;;;;;;;;0.00;0.00;;;;;-146.67;26.87;74825.34;5113430;27;61944;-82
2023/05/27 00:18:32;;;;;;;;;0.00;0.00;;;;;-146.67;27.13;74829.34;5104057;27;63704;-82
2023/05/27 00:20:59;;;;;;;;;0.00;0.00;;;;;-146.67;27.18;74835.31;5109478;27;61895;-83
2023/05/27 00:23:24;;;;;;;;;0.00;0.00;;;;;-146.67;27.25;74819.34;5104666;27;61939;-82
2023/05/27 00:25:50;;;;;;;;;0.00;0.00;;;;;-146.67;27.02;74825.34;5103485;27;61966;-82
2023/05/27 00:28:15;;;;;;;;;0.00;0.00;;;;;-146.67;27.06;74829.34;5090812;27;63840;-82
2023/05/27 00:30:41;;;;;;;;;0.00;0.00;;;;;-146.67;27.18;74825.34;5083254;27;62104;-82
2023/05/27 00:33:06;;;;;;;;;0.00;0.00;;;;;-146.67;27.22;74827.34;5095785;27;61809;-83
2023/05/27 00:35:31;;;;;;;;;0.00;0.00;;;;;-146.67;27.15;74825.34;5105034;27;61846;-82
2023/05/27 00:37:57;;;;;;;;;5.00;5.00;;;;;-146.67;27.16;74831.34;5112871;27;61935;-82
2023/05/27 00:40:24;;;;;;;;;0.00;0.00;;;;;-146.67;27.14;74827.34;5083817;27;61908;-82
2023/05/27 00:42:50;;;;;;;;;0.00;0.00;;;;;-146.67;27.02;74833.31;5092772;27;62140;-82
2023/05/27 00:45:15;;;;;;;;;0.00;0.00;;;;;-146.67;27.43;74843.31;5123958;27;61783;-82
2023/05/27 00:47:41;;;;;;;;;0.00;0.00;;;;;-146.67;27.58;74853.28;5115017;27;62901;-82
2023/05/27 00:50:07;;;;;;;;;0.00;0.00;;;;;-146.67;27.36;74859.28;5102492;27;62152;-82
2023/05/27 00:52:33;;;;;;;;;0.00;0.00;;;;;-146.67;27.05;74863.28;5083986;27;61989;-82
2023/05/27 00:54:59;;;;;;;;;0.00;0.00;;;;;-146.67;27.32;74863.28;5085038;27;61903;-82
2023/05/27 00:57:25;;;;;;;;;0.00;0.00;;;;;-146.67;27.19;74867.28;5103925;27;65225;-82
2023/05/27 00:59:51;;;;;;;;;0.00;0.00;;;;;-146.67;27.28;74871.25;5123601;27;62266;-83
2023/05/27 01:02:17;;;;;;;;;0.00;0.00;;;;;-146.67;27.20;74857.28;5101204;27;61935;-82
2023/05/27 01:04:46;;;;;;;;;0.00;0.00;;;;;-146.67;27.39;74861.28;5102669;27;61777;-82
2023/05/27 01:07:21;;;;;;;;;0.00;0.00;;;;;-146.67;27.16;74857.28;5083251;27;64066;-83
2023/05/27 01:10:05;;;;;;;;;0.00;0.00;;;;;-146.67;27.24;74859.28;5100598;27;61817;-83
2023/05/27 01:12:50;;;;;;;;;0.00;0.00;;;;;-146.67;27.17;74863.28;5084277;27;61813;-82
2023/05/27 01:15:16;;;;;;;;;0.00;0.00;;;;;-146.67;27.39;74875.25;5116153;27;62096;-82
2023/05/27 01:17:46;;;;;;;;;0.00;0.00;;;;;-146.67;27.62;74873.25;5121797;27;61776;-82
2023/05/27 01:20:14;;;;;;;;;0.00;0.00;;;;;-146.67;27.47;74881.25;5104297;27;61991;-82
2023/05/27 01:22:41;;;;;;;;;0.00;0.00;;;;;-146.67;27.33;74893.22;5104215;27;61902;-82
2023/05/27 01:25:08;;;;;;;;;0.00;0.00;;;;;-146.67;27.32;74893.22;5111237;27;61768;-82
2023/05/27 01:27:33;;;;;;;;;0.00;0.00;;;;;-146.67;27.32;74891.22;5106766;27;62076;-83
2023/05/27 01:30:00;;;;;;;;;0.00;0.00;;;;;-146.67;27.50;74893.22;5103875;27;61797;-83
2023/05/27 01:32:51;;;;;;;;;0.00;0.00;;;;;-146.67;27.19;74903.22;5097420;27;61870;-83
2023/05/27 01:35:30;;;;;;;;;0.00;0.00;;;;;-146.67;27.56;74909.19;5102606;27;61776;-83
2023/05/27 01:38:01;;;;;;;;;5.75;3.25;;;;;-146.67;27.39;74907.22;5100892;27;62818;-83
2023/05/27 01:40:30;;;;;;;;;0.00;0.00;;;;;-146.67;27.50;74909.19;5096074;27;61752;-83
2023/05/27 01:42:59;;;;;;;;;0.00;0.00;;;;;-146.67;27.32;74911.19;5122730;27;61814;-83
2023/05/27 01:45:25;;;;;;;;;0.00;0.00;;;;;-146.67;27.21;74913.19;5104804;27;62279;-83
2023/05/27 01:47:51;;;;;;;;;0.00;0.00;;;;;-146.67;27.52;74921.19;5102443;27;63768;-83
2023/05/27 01:50:17;;;;;;;;;8.50;5.75;;;;;-146.67;27.56;74933.16;5103828;27;61826;-83
2023/05/27 01:52:42;;;;;;;;;0.00;0.00;;;;;-146.67;27.08;74923.19;5103835;27;61859;-83
2023/05/27 01:55:08;;;;;;;;;0.00;0.00;;;;;-146.67;27.28;74921.19;5123495;27;62086;-83
2023/05/27 01:57:33;;;;;;;;;0.00;0.00;;;;;-146.67;27.34;74917.19;5106912;27;64937;-83
2023/05/27 01:59:59;;;;;;;;;0.00;0.00;;;;;-146.67;27.31;74925.19;5107410;27;61970;-83
2023/05/27 02:02:24;;;;;;;;;0.00;0.00;;;;;-146.67;27.19;74933.16;5113424;27;61921;-83
2023/05/27 02:04:50;;;;;;;;;0.00;0.00;;;;;-146.67;27.24;74931.16;5105419;27;62020;-83
2023/05/27 02:07:16;;;;;;;;;0.00;0.00;;;;;-146.67;27.35;74941.16;5086086;27;64028;-83
2023/05/27 02:09:43;;;;;;;;;0.00;0.00;;;;;-146.67;27.51;74943.16;5105152;27;61673;-83
2023/05/27 02:12:08;;;;;;;;;0.00;0.00;;;;;-146.67;27.20;74945.16;5105119;27;61683;-83
2023/05/27 02:14:38;;;;;;;;;0.00;0.00;;;;;-146.67;27.31;74957.13;5105637;27;62207;-83
2023/05/27 02:17:04;;;;;;;;;0.00;0.00;;;;;-146.67;27.18;74963.13;5085363;27;63910;-83
2023/05/27 02:19:29;;;;;;;;;0.00;0.00;;;;;-146.67;27.44;74963.13;5086356;27;61775;-83
2023/05/27 02:21:55;;;;;;;;;0.00;0.00;;;;;-146.67;27.49;74959.13;5087003;27;61788;-83
2023/05/27 02:24:20;;;;;;;;;0.00;0.00;;;;;-146.67;27.55;74957.13;5105051;27;62099;-83
2023/05/27 02:26:45;;;;;;;;;0.00;0.00;;;;;-146.67;27.20;74957.13;5086156;27;63703;-83
2023/05/27 02:29:11;;;;;;;;;0.00;0.00;;;;;-146.67;27.41;74959.13;5086265;27;61904;-83
2023/05/27 02:31:36;;;;;;;;;5.00;4.00;;;;;-146.67;27.57;74959.13;5104995;27;61966;-83
2023/05/27 02:34:01;;;;;;;;;0.00;0.00;;;;;-146.67;27.49;74961.13;5112420;27;61969;-83
2023/05/27 02:36:27;;;;;;;;;7.75;4.75;;;;;-146.67;27.43;74957.13;5104060;27;63496;-83
2023/05/27 02:38:53;;;;;;;;;0.00;0.00;;;;;-146.67;27.45;74955.13;5104492;27;61818;-83
2023/05/27 02:41:18;;;;;;;;;0.00;0.00;;;;;-146.67;27.25;74957.13;5096132;27;63187;-83
2023/05/27 02:43:44;;;;;;;;;0.00;0.00;;;;;-146.67;27.31;74957.13;5106896;27;62051;-83
2023/05/27 02:46:09;;;;;;;;;0.00;0.00;;;;;-146.67;27.36;74953.13;5106100;27;64059;-83
2023/05/27 02:48:34;;;;;;;;;0.00;0.00;;;;;-146.67;27.35;74949.13;5105674;27;61919;-83
2023/05/27 02:51:00;;;;;;;;;5.25;3.50;;;;;-146.67;27.60;74959.13;5106340;27;61889;-83
2023/05/27 02:53:25;;;;;;;;;0.00;0.00;;;;;-146.67;27.44;74963.13;5106740;27;61926;-83
2023/05/27 02:55:52;;;;;;;;;4.50;3.25;;;;;-146.67;27.22;74967.09;5124305;27;62015;-83
2023/05/27 02:58:17;;;;;;;;;0.00;0.00;;;;;-146.67;27.62;74977.09;5106409;27;62148;-83
2023/05/27 03:00:42;;;;;;;;;0.00;0.00;;;;;-146.67;27.56;74987.06;5106668;27;61949;-83
2023/05/27 03:03:08;;;;;;;;;2.75;1.50;;;;;-146.67;27.67;74997.06;5106233;27;61994;-83
2023/05/27 03:05:35;;;;;;;;;0.00;0.00;;;;;-146.67;27.70;74997.06;5096471;27;64596;-83
2023/05/27 03:08:01;;;;;;;;;8.50;5.00;;;;;-146.67;27.54;75001.06;5106530;27;61928;-83
2023/05/27 03:10:26;;;;;;;;;0.00;0.00;;;;;-146.67;27.53;74995.06;5124217;27;62041;-83
2023/05/27 03:12:54;;;;;;;;;0.00;0.00;;;;;-146.67;27.55;74997.06;5106773;27;61765;-83
2023/05/27 03:15:21;;;;;;;;;0.00;0.00;;;;;-146.67;27.34;74991.06;5105778;27;63660;-83
2023/05/27 03:17:47;;;;;;;;;6.50;4.00;;;;;-146.67;27.59;74993.06;5123327;27;61918;-83
2023/05/27 03:20:13;;;;;;;;;0.00;0.00;;;;;-146.67;27.65;74995.06;5106225;27;62241;-83
2023/05/27 03:22:38;;;;;;;;;0.00;0.00;;;;;-146.67;27.52;74995.06;5106216;27;62184;-83
2023/05/27 03:25:05;;;;;;;;;5.50;4.25;;;;;-146.67;27.78;75001.06;5105220;27;63690;-83
2023/05/27 03:27:30;;;;;;;;;0.00;0.00;;;;;-146.67;27.72;75005.03;5106195;27;61701;-83
2023/05/27 03:29:56;;;;;;;;;2.25;1.00;;;;;-146.67;27.85;75005.03;5106192;27;61797;-83
2023/05/27 03:32:21;;;;;;;;;0.00;0.00;;;;;-146.67;27.78;75003.03;5101927;27;61961;-83
2023/05/27 03:34:47;;;;;;;;;0.00;0.00;;;;;-146.67;27.70;74999.06;5106895;27;62142;-83
2023/05/27 03:37:13;;;;;;;;;5.50;3.25;;;;;-146.67;27.59;75011.03;5103570;27;61944;-83
2023/05/27 03:39:39;;;;;;;;;4.00;4.00;;;;;-146.67;27.85;75007.03;5103321;27;61698;-83
2023/05/27 03:42:05;;;;;;;;;1.50;1.50;;;;;-146.67;27.84;75005.03;5113289;27;61807;-83
2023/05/27 03:44:31;;;;;;;;;3.00;2.75;;;;;-146.67;27.84;75007.03;5123330;27;63029;-83
2023/05/27 03:46:57;;;;;;;;;0.00;0.00;;;;;-146.67;27.81;75011.03;5104715;27;62058;-83
2023/05/27 03:49:22;;;;;;;;;4.50;4.00;;;;;-146.67;28.13;75015.03;5105505;27;61962;-83
2023/05/27 03:51:48;;;;;;;;;0.00;0.00;;;;;-146.67;27.96;75009.03;5124587;27;61854;-83
2023/05/27 03:54:14;;;;;;;;;4.50;2.00;;;;;-146.67;27.94;75025.00;5123330;27;62086;-83
2023/05/27 03:56:39;;;;;;;;;0.00;0.00;;;;;-146.67;28.00;75029.00;5105501;27;61833;-83
2023/05/27 03:59:06;;;;;;;;;3.25;3.25;;;;;-146.67;28.13;75029.00;5105592;27;61948;-83
2023/05/27 04:01:31;;;;;;;;;0.00;0.00;;;;;-146.67;28.05;75029.00;5104979;27;62140;-83
2023/05/27 04:03:57;;;;;;;;;0.00;0.00;;;;;-146.67;27.89;75029.00;5096755;27;64090;-83
2023/05/27 04:06:23;;;;;;;;;0.00;0.00;;;;;-146.67;28.00;75029.00;5084936;27;61797;-83
2023/05/27 04:08:48;;;;;;;;;0.00;0.00;;;;;-146.67;28.11;75033.00;5103692;27;61801;-83
2023/05/27 04:11:13;;;;;;;;;3.50;2.00;;;;;-146.67;28.16;75035.00;5085118;27;61832;-83
2023/05/27 04:13:40;;;;;;;;;0.00;0.00;;;;;-146.67;28.16;75040.97;5102682;27;61820;-83
2023/05/27 04:16:06;;;;;;;;;0.00;0.00;;;;;-146.67;28.13;75044.97;5102970;27;61710;-83
2023/05/27 04:18:32;;;;;;;;;0.00;0.00;;;;;-146.67;28.28;75044.97;5100245;27;61900;-83
2023/05/27 04:20:58;;;;;;;;;7.00;5.00;;;;;-146.67;28.15;75056.97;5119889;27;61945;-83
2023/05/27 04:23:24;;;;;;;;;2.75;2.75;;;;;-146.67;28.23;75054.97;5101539;27;61746;-83
2023/05/27 04:25:51;;;;;;;;;7.25;4.75;;;;;-146.67;28.26;75056.97;5101427;27;61994;-83
2023/05/27 04:28:16;;;;;;;;;0.00;0.00;;;;;-146.67;28.21;75056.97;5083361;27;61983;-83
2023/05/27 04:30:42;;;;;;;;;2.00;1.75;;;;;-146.67;28.63;75058.94;5097257;27;61812;-83
2023/05/27 04:33:07;;;;;;;;;5.00;1.00;;;;;-146.67;28.50;75062.94;5089771;27;63438;-83
2023/05/27 04:35:33;;;;;;;;;4.25;3.25;;;;;-146.67;28.25;75058.94;5102831;27;62167;-83
2023/05/27 04:38:02;;;;;;;;;6.00;5.00;;;;;-146.67;28.40;75072.94;5102940;27;61954;-83
2023/05/27 04:40:28;;;;;;;;;0.00;0.00;;;;;-146.67;28.76;75062.94;5096625;27;61939;-83
2023/05/27 04:42:55;;;;;;;;;0.00;0.00;;;;;-146.67;28.50;75072.94;5103654;27;64053;-83
2023/05/27 04:45:21;;;;;;;;;5.25;3.75;;;;;-146.67;28.49;75058.94;5083632;27;61964;-83
2023/05/27 04:47:46;;;;;;;;;0.00;0.00;;;;;-146.67;28.21;75054.97;5083446;27;61953;-83
2023/05/27 04:50:13;;;;;;;;;0.00;0.00;;;;;-146.67;28.43;75074.94;5084976;27;61891;-83
2023/05/27 04:52:40;;;;;;;;;0.00;0.00;;;;;-146.67;28.52;75054.97;5083748;27;63841;-83
2023/05/27 04:55:08;;;;;;;;;2.75;2.75;;;;;-146.67;28.51;75062.94;5102562;27;61769;-82
2023/05/27 04:57:34;;;;;;;;;0.00;0.00;;;;;-146.67;28.48;75066.94;5084455;27;62022;-83
2023/05/27 05:02:47;;;;;;;;;3.00;3.00;;;;;-146.67;28.49;75062.94;5032587;28;62285;-83
2023/05/27 05:05:14;;;;;;;;;0.00;0.00;;;;;-146.67;28.36;75064.94;5022464;28;62190;-83
2023/05/27 05:07:43;;;;;;;;;8.25;5.25;;;;;-146.67;28.55;75062.94;5021844;28;61967;-83
2023/05/27 05:10:09;;;;;;;;;6.25;4.75;;;;;-146.67;28.91;75054.97;5021907;28;61883;-83
2023/05/27 05:12:36;;;;;;;;;1.50;1.50;;;;;-146.67;28.29;75048.97;5021764;28;62903;-83
2023/05/27 05:15:01;;;;;;;;;0.00;0.00;;;;;-146.67;28.58;75046.97;5038693;28;61887;-83
2023/05/27 05:17:27;;;;;;;;;5.25;5.25;;;;;-146.67;28.58;75027.00;5037789;28;62011;-83
2023/05/27 05:19:53;;;;;;;;;1.75;1.75;;;;;-146.67;28.47;75027.00;5038976;28;61884;-85
2023/05/27 05:22:19;;;;;;;;;3.00;3.00;;;;;-146.67;28.18;75021.00;5021320;28;63923;-83
2023/05/27 05:24:46;;;;;;;;;5.50;4.50;;;;;-146.67;28.47;75011.03;5021464;28;62036;-83
2023/05/27 05:27:11;;;;;;;;;0.00;0.00;;;;;-146.67;28.16;74999.06;5039158;28;62104;-83
2023/05/27 05:29:37;;;;;;;;;7.25;4.50;;;;;-146.67;28.27;74983.06;5030248;28;61942;-84
2023/05/27 05:32:03;;;;;;;;;4.00;3.50;;;;;-146.67;28.32;74959.13;5024949;28;63019;-84
2023/05/27 05:34:28;;;;;;;;;6.00;5.00;;;;;-146.67;28.10;74945.16;5041362;28;61883;-83
2023/05/27 05:36:54;;;;;;;;;0.00;0.00;;;;;-146.67;27.75;74907.22;5025461;28;61907;-85
2023/05/27 05:39:20;;;;;;;;;5.00;4.25;;;;;-146.67;27.79;74873.25;5042912;27;61748;-83
2023/05/27 05:41:46;;;;;;;;;0.00;0.00;;;;;-146.67;27.44;74837.31;5106925;27;63376;-83
2023/05/27 05:44:12;;;;;;;;;0.00;0.00;;;;;-146.67;27.16;74785.41;5107536;27;61784;-84
2023/05/27 05:46:37;;;;;;;;;0.00;0.00;;;;;-146.67;26.78;74751.47;5108004;27;62008;-83
2023/05/27 05:49:05;;;;;;;;;0.00;0.00;;;;;-146.67;26.78;74721.53;5089654;27;61785;-84
2023/05/27 05:51:32;;;;;;;;;0.00;0.00;;;;;-146.67;26.41;74709.53;5104963;27;62613;-83
2023/05/27 05:53:59;;;;;;;;;0.00;0.00;;;;;-146.67;26.36;74693.56;5105198;27;61775;-83
2023/05/27 05:56:28;;;;;;;;;0.00;0.00;;;;;-146.67;26.13;74667.63;5087163;27;61856;-83
2023/05/27 05:58:53;;;;;;;;;0.00;0.00;;;;;-146.67;26.28;74667.63;5104783;27;62044;-82
2023/05/27 06:01:19;;;;;;;;;0.00;0.00;;;;;-146.67;26.39;74667.63;5098739;27;63671;-83
2023/05/27 06:03:45;;;;;;;;;0.00;0.00;;;;;-146.67;26.27;74659.63;5101573;27;61936;-84
2023/05/27 06:06:10;;;;;;;;;0.00;0.00;;;;;-146.67;26.19;74653.63;5105282;27;61991;-83
2023/05/27 06:08:36;;;;;;;;;0.00;0.00;;;;;-146.67;25.99;74635.66;5087367;27;61998;-83
2023/05/27 06:11:02;;;;;;;;;0.00;0.00;;;;;-146.67;25.72;74609.72;5102655;27;63602;-83
2023/05/27 06:13:27;;;;;;;;;0.00;0.00;;;;;-146.67;25.79;74581.75;5107207;27;62065;-83
2023/05/27 06:15:53;;;;;;;;;0.00;0.00;;;;;-146.67;25.68;74555.81;5119149;27;62164;-83
2023/05/27 06:18:18;;;;;;;;;0.00;0.00;;;;;-146.67;25.47;74497.91;5106801;27;62021;-83
2023/05/27 06:20:43;;;;;;;;;0.00;0.00;;;;;-146.67;24.88;74320.22;5102165;27;63161;-82
2023/05/27 06:23:09;;;;;;;;;0.00;0.00;;;;;-146.67;24.64;74286.28;5114451;27;62025;-84
2023/05/27 06:25:34;;;;;;;;;0.00;0.00;;;;;-146.67;24.51;74320.22;5107469;27;61824;-85
2023/05/27 06:28:00;;;;;;;;;0.00;0.00;;;;;-146.67;24.63;74340.19;5125841;27;61911;-85
2023/05/27 06:30:26;;;;;;;;;0.00;0.00;;;;;-146.67;24.94;74372.13;5106875;27;64151;-80
2023/05/27 06:32:52;;;;;;;;;0.00;0.00;;;;;-146.67;24.76;74360.16;5097510;27;61898;-79
2023/05/27 06:35:18;;;;;;;;;0.00;0.00;;;;;-146.67;24.59;74368.16;5115722;27;61796;-80
2023/05/27 06:37:49;;;;;;;;;0.00;0.00;;;;;-146.67;25.13;74404.09;5089730;27;62246;-84
2023/05/27 06:40:15;;;;;;;;;0.00;0.00;;;;;-146.67;25.16;74438.03;5104152;27;62109;-81
2023/05/27 06:42:40;;;;;;;;;0.00;0.00;;;;;-146.67;25.42;74463.97;5123395;27;61933;-80
2023/05/27 06:45:06;;;;;;;;;0.00;0.00;;;;;-146.67;25.33;74489.94;5125835;27;61827;-77
2023/05/27 06:47:32;;;;;;;;;0.00;0.00;;;;;-146.67;25.38;74519.88;5105790;27;62210;-76
2023/05/27 06:49:57;;;;;;;;;0.00;0.00;;;;;-146.67;26.11;74535.84;5116549;27;61910;-84
2023/05/27 06:52:23;;;;;;;;;0.00;0.00;;;;;-146.67;25.86;74555.81;5105150;27;61734;-84
2023/05/27 06:54:49;;;;;;;;;0.00;0.00;;;;;-146.67;25.88;74571.78;5106007;27;62005;-80
2023/05/27 06:57:14;;;;;;;;;0.00;0.00;;;;;-146.67;26.28;74583.75;5106077;27;61837;-83
2023/05/27 06:59:40;;;;;;;;;0.00;0.00;;;;;-146.67;26.31;74597.75;5124623;27;61805;-84
2023/05/27 07:02:06;;;;;;;;;0.00;0.00;;;;;-146.67;26.21;74609.72;5100221;27;61918;-85
2023/05/27 07:04:32;;;;;;;;;0.00;0.00;;;;;-146.67;26.27;74619.69;5104571;27;62114;-84
2023/05/27 07:06:57;;;;;;;;;0.00;0.00;;;;;-146.67;26.60;74617.69;5098988;27;62230;-85
2023/05/27 07:09:23;;;;;;;;;0.00;0.00;;;;;-146.67;26.50;74615.72;5111265;27;62117;-83
2023/05/27 07:12:01;;;;;;;;;0.00;0.00;;;;;-146.67;26.62;74613.72;5091271;27;61728;-88
2023/05/27 07:14:26;;;;;;;;;0.00;0.00;;;;;-146.67;26.79;74631.69;5118188;27;62020;-84
2023/05/27 07:16:52;;;;;;;;;0.00;0.00;;;;;-146.67;26.59;74627.69;5098345;27;61752;-84
2023/05/27 07:19:17;;;;;;;;;0.00;0.00;;;;;-146.67;26.68;74633.69;5093757;27;63515;-84
2023/05/27 07:21:43;;;;;;;;;0.00;0.00;;;;;-146.67;26.61;74635.66;5097223;27;61958;-84
2023/05/27 07:24:08;;;;;;;;;0.00;0.00;;;;;-146.67;26.64;74629.69;5096765;27;61845;-84
2023/05/27 07:26:34;;;;;;;;;0.00;0.00;;;;;-146.67;26.59;74629.69;5113095;27;62128;-85
2023/05/27 07:29:01;;;;;;;;;0.00;0.00;;;;;-146.67;26.85;74635.66;5113156;27;63447;-84
2023/05/27 07:31:27;;;;;;;;;0.00;0.00;;;;;-146.67;26.73;74637.66;5111649;27;61961;-88
2023/05/27 07:33:53;;;;;;;;;0.00;0.00;;;;;-146.67;27.01;74631.69;5095250;27;62109;-87
2023/05/27 07:36:19;;;;;;;;;0.00;0.00;;;;;-146.67;26.76;74623.69;5113494;27;62087;-81
2023/05/27 07:38:50;;;;;;;;;0.00;0.00;;;;;-146.67;26.73;74619.69;5110296;27;62081;-85
2023/05/27 07:41:17;;;;;;;;;0.00;0.00;;;;;-146.67;27.09;74623.69;5104002;27;61788;-83
2023/05/27 07:43:44;;;;;;;;;0.00;0.00;;;;;-146.67;27.33;74629.69;5101561;27;62126;-85
2023/05/27 07:46:14;;;;;;;;;0.00;0.00;;;;;-146.67;26.88;74639.66;5085567;27;62242;-86
2023/05/27 07:48:40;;;;;;;;;0.00;0.00;;;;;-146.67;27.14;74643.66;5080483;28;63529;-86
2023/05/27 07:51:05;;;;;;;;;0.00;0.00;;;;;-146.67;27.07;74641.66;5081920;28;61749;-87
2023/05/27 07:53:30;;;;;;;;;0.00;0.00;;;;;-146.67;27.19;74641.66;5083037;27;61758;-87
2023/05/27 07:55:56;;;;;;;;;0.00;0.00;;;;;-146.67;27.03;74645.66;5083745;27;61722;-88
2023/05/27 07:58:25;;;;;;;;;0.00;0.00;;;;;-146.67;27.12;74641.66;5092124;27;61995;-89
2023/05/27 08:00:52;;;;;;;;;0.00;0.00;;;;;-146.67;27.36;74631.69;5090329;27;61912;-88
2023/05/27 08:03:19;;;;;;;;;0.00;0.00;;;;;-146.67;27.14;74631.69;5089990;27;61940;-88
2023/05/27 08:05:49;;;;;;;;;0.00;0.00;;;;;-146.67;27.16;74637.66;5089684;27;61934;-89
2023/05/27 08:08:20;;;;;;;;;0.00;0.00;;;;;-146.67;27.29;74625.69;5089727;27;61952;-89
2023/05/27 08:10:51;;;;;;;;;0.00;0.00;;;;;-146.67;27.36;74625.69;5088948;27;61923;-88
2023/05/27 08:13:25;;;;;;;;;0.00;0.00;;;;;-146.67;27.55;74625.69;5100864;27;61899;-91
2023/05/27 08:15:50;;;;;;;;;0.00;0.00;;;;;-146.67;27.36;74621.69;5102309;27;61860;-79
2023/05/27 08:18:16;;;;;;;;;0.00;0.00;;;;;-146.67;27.16;74615.72;5086608;27;64642;-78
2023/05/27 08:20:43;;;;;;;;;0.00;0.00;;;;;-146.67;27.47;74609.72;5082744;27;61802;-79
2023/05/27 08:23:11;;;;;;;;;0.00;0.00;;;;;-146.67;27.24;74599.72;5080922;28;61692;-82
2023/05/27 08:25:38;;;;;;;;;0.00;0.00;;;;;-146.67;27.67;74591.75;5082083;27;61690;-81
2023/05/27 08:28:06;;;;;;;;;0.00;0.00;;;;;-146.67;27.64;74593.75;5084141;27;64395;-81
2023/05/27 08:30:34;;;;;;;;;0.00;0.00;;;;;-146.67;27.47;74585.75;5103754;27;61826;-81
2023/05/27 08:32:59;;;;;;;;;0.00;0.00;;;;;-146.67;27.39;74583.75;5091156;27;61987;-81
2023/05/27 08:35:26;;;;;;;;;0.00;0.00;;;;;-146.67;27.19;74573.78;5088266;27;62347;-81
2023/05/27 08:37:57;;;;;;;;;0.00;0.00;;;;;-146.67;27.54;74575.78;5085228;27;62008;-81
2023/05/27 08:40:22;;;;;;;;;0.00;0.00;;;;;-146.67;27.22;74571.78;5101661;27;61795;-81
2023/05/27 08:42:48;;;;;;;;;0.00;0.00;;;;;-146.67;27.33;74563.78;5101451;27;61968;-82
2023/05/27 08:45:14;;;;;;;;;0.00;0.00;;;;;-146.67;27.48;74559.81;5103644;27;61928;-80
2023/05/27 08:47:39;;;;;;;;;0.00;0.00;;;;;-146.67;27.64;74553.81;5096484;27;63080;-84
2023/05/27 08:50:07;;;;;;;;;0.00;0.00;;;;;-146.67;27.65;74543.84;5085445;27;61976;-85
2023/05/27 08:52:33;;;;;;;;;0.00;0.00;;;;;-146.67;27.45;74537.84;5102694;27;61850;-85
2023/05/27 08:54:59;;;;;;;;;0.00;0.00;;;;;-146.67;27.58;74545.81;5102843;27;61797;-85
2023/05/27 08:57:30;;;;;;;;;0.00;0.00;;;;;-146.67;27.64;74569.78;5100821;27;63668;-83
2023/05/27 08:59:56;;;;;;;;;0.00;0.00;;;;;-146.67;27.53;74563.78;5101422;27;61842;-84
2023/05/27 09:02:22;;;;;;;;;0.00;0.00;;;;;-146.67;27.80;74545.81;5103162;27;61747;-84
2023/05/27 09:04:48;;;;;;;;;0.00;0.00;;;;;-146.67;27.79;74539.84;5102774;27;61962;-82
2023/05/27 09:07:14;;;;;;;;;0.00;0.00;;;;;-146.67;27.59;74527.84;5099518;27;63842;-82
2023/05/27 09:09:40;;;;;;;;;0.00;0.00;;;;;-146.67;27.51;74517.88;5093715;27;62078;-83
2023/05/27 09:12:08;;;;;;;;;0.00;0.00;;;;;-146.67;27.51;74513.88;5091970;27;62081;-82
2023/05/27 09:14:37;;;;;;;;;0.00;0.00;;;;;-146.67;28.03;74505.91;5103611;27;61937;-81
2023/05/27 09:17:07;;;;;;;;;0.00;0.00;;;;;-146.67;28.01;74499.91;5093012;27;64506;-83
2023/05/27 09:19:33;;;;;;;;;0.00;0.00;;;;;-146.67;27.84;74491.94;5090263;27;61909;-83
2023/05/27 09:21:59;;;;;;;;;0.00;0.00;;;;;-146.67;27.71;74491.94;5088969;27;61896;-82
2023/05/27 09:24:25;;;;;;;;;0.00;0.00;;;;;-146.67;27.65;74485.94;5088734;27;62149;-80
2023/05/27 09:26:55;;;;;;;;;0.00;0.00;;;;;-146.67;27.46;74473.97;5105913;27;63187;-80
2023/05/27 09:29:23;;;;;;;;;0.00;0.00;;;;;-146.67;27.76;74461.97;5091482;27;61874;-81
2023/05/27 09:31:48;;;;;;;;;0.00;0.00;;;;;-146.67;27.55;74444.00;5084337;28;61960;-79
2023/05/27 09:34:16;;;;;;;;;0.00;0.00;;;;;-146.67;27.56;74430.03;5092133;27;62049;-81
2023/05/27 09:36:46;;;;;;;;;0.00;0.00;;;;;-146.67;27.53;74428.03;5085870;27;63286;-77
2023/05/27 09:39:14;;;;;;;;;0.00;0.00;;;;;-146.67;27.73;74418.06;5093836;27;62153;-80
2023/05/27 09:41:40;;;;;;;;;0.00;0.00;;;;;-146.67;27.57;74406.06;5092386;27;62150;-81
2023/05/27 09:44:06;;;;;;;;;0.00;0.00;;;;;-146.67;27.42;74402.09;5091737;27;62228;-79
2023/05/27 09:46:33;;;;;;;;;0.00;0.00;;;;;-146.67;27.74;74402.09;5091904;27;64335;-80
2023/05/27 09:49:03;;;;;;;;;0.00;0.00;;;;;-146.67;27.70;74380.13;5100182;27;62140;-79
2023/05/27 09:51:29;;;;;;;;;0.00;0.00;;;;;-146.67;27.78;74384.13;5092372;27;62049;-78
2023/05/27 09:53:57;;;;;;;;;0.00;0.00;;;;;-146.67;27.71;74400.09;5103137;27;61952;-78
2023/05/27 09:56:26;;;;;;;;;0.00;0.00;;;;;-146.67;27.79;74380.13;5103383;27;61748;-78
2023/05/27 09:58:55;;;;;;;;;0.00;0.00;;;;;-146.67;27.90;74394.09;5104390;27;61917;-80
2023/05/27 10:01:25;;;;;;;;;0.00;0.00;;;;;-146.67;27.69;74396.09;5101303;27;62168;-80
2023/05/27 10:03:51;;;;;;;;;0.00;0.00;;;;;-146.67;27.67;74372.13;5099854;27;61967;-80
2023/05/27 10:06:17;;;;;;;;;0.00;0.00;;;;;-146.67;28.04;74366.16;5093718;27;61943;-83
2023/05/27 10:08:43;;;;;;;;;0.00;0.00;;;;;-146.67;27.45;74340.19;5104970;27;61776;-80
2023/05/27 10:11:13;;;;;;;;;0.00;0.00;;;;;-146.67;27.61;74316.25;5094832;27;61902;-88
2023/05/27 10:13:38;;;;;;;;;0.00;0.00;;;;;-146.67;27.74;74296.28;5101413;27;61807;-81
2023/05/27 10:16:05;;;;;;;;;0.00;0.00;;;;;-146.67;27.46;74282.31;5090276;27;63184;-76
2023/05/27 10:18:30;;;;;;;;;0.00;0.00;;;;;-146.67;27.67;74270.31;5086899;27;61851;-80
2023/05/27 10:21:00;;;;;;;;;0.00;0.00;;;;;-146.67;27.57;74248.38;5092665;27;61870;-78
2023/05/27 10:23:30;;;;;;;;;0.00;0.00;;;;;-146.67;26.99;74234.38;5088845;27;62037;-79
2023/05/27 10:26:07;;;;;;;;;0.00;0.00;;;;;-146.67;27.06;74244.38;5089749;27;64261;-78
2023/05/27 10:28:39;;;;;;;;;0.00;0.00;;;;;-146.67;27.57;74216.44;5091420;27;61984;-81
2023/05/27 10:31:14;;;;;;;;;0.00;0.00;;;;;-146.67;27.45;74192.47;5092663;27;61850;-80
2023/05/27 10:33:43;;;;;;;;;0.00;0.00;;;;;-146.67;27.07;74172.50;5091615;27;61993;-80
2023/05/27 10:36:21;;;;;;;;;0.00;0.00;;;;;-146.67;27.08;74150.53;5086602;27;63698;-81
2023/05/27 10:39:12;;;;;;;;;0.00;0.00;;;;;-146.67;27.13;74148.56;5088269;27;61990;-78
2023/05/27 10:41:49;;;;;;;;;0.00;0.00;;;;;-146.67;26.71;74126.59;5086989;27;62040;-86
2023/05/27 10:44:35;;;;;;;;;0.00;0.00;;;;;-146.67;26.79;74116.59;5100142;27;62152;-78
2023/05/27 10:47:15;;;;;;;;;0.00;0.00;;;;;-146.67;26.91;74088.66;5092885;27;63548;-79
2023/05/27 10:49:45;;;;;;;;;0.00;0.00;;;;;-146.67;26.79;74076.69;5096879;27;62039;-81
2023/05/27 10:52:13;;;;;;;;;0.00;0.00;;;;;-146.67;27.04;74064.72;5092273;27;62753;-82
2023/05/27 10:54:46;;;;;;;;;0.00;0.00;;;;;-146.67;26.49;74036.75;5101482;27;62431;-84
2023/05/27 10:57:12;;;;;;;;;0.00;0.00;;;;;-146.67;26.19;74024.78;5086546;27;62772;-85
2023/05/27 10:59:54;;;;;;;;;0.00;0.00;;;;;-146.67;26.30;74010.81;5096049;27;61943;-82
2023/05/27 11:02:20;;;;;;;;;0.00;0.00;;;;;-146.67;26.36;73984.84;5093838;27;61918;-82
2023/05/27 11:04:48;;;;;;;;;0.00;0.00;;;;;-146.67;26.15;73972.88;5089184;27;61905;-81
2023/05/27 11:07:24;;;;;;;;;0.00;0.00;;;;;-146.67;26.32;73954.91;5092639;27;63534;-82
2023/05/27 11:09:52;;;;;;;;;0.00;0.00;;;;;-146.67;26.05;73936.94;5091846;27;62220;-79
2023/05/27 11:12:19;;;;;;;;;0.00;0.00;;;;;-146.67;26.18;73913.00;5095290;27;62289;-81
2023/05/27 11:14:46;;;;;;;;;0.00;0.00;;;;;-146.67;26.11;73899.03;5095165;27;62079;-81
2023/05/27 11:17:12;;;;;;;;;0.00;0.00;;;;;-146.67;25.72;73875.06;5087257;27;64534;-82
2023/05/27 11:19:42;;;;;;;;;0.00;0.00;;;;;-146.67;25.94;73867.09;5085596;27;62399;-85